sensor_id;sensor_type;location;lat;lon;timestamp;temperature;humidity
46926;DHT22;32667;48.248;-1.700;2024-03-23T00:52:19;7.90;78.50
46926;DHT22;32667;48.248;-1.700;2024-03-23T00:54:45;7.80;78.70
46926;DHT22;32667;48.248;-1.700;2024-03-23T00:57:13;7.80;78.80
46926;DHT22;32667;48.248;-1.700;2024-03-23T00:59:39;7.80;78.90
46926;DHT22;32667;48.248;-1.700;2024-03-23T01:02:07;7.70;78.80
46926;DHT22;32667;48.248;-1.700;2024-03-23T01:04:36;7.80;78.80
46926;DHT22;32667;48.248;-1.700;2024-03-23T01:07:02;7.80;78.80
46926;DHT22;32667;48.248;-1.700;2024-03-23T01:09:32;7.80;78.70
46926;DHT22;32667;48.248;-1.700;2024-03-23T01:11:58;7.90;78.70
46926;DHT22;32667;48.248;-1.700;2024-03-23T01:14:27;7.90;78.40
46926;DHT22;32667;48.248;-1.700;2024-03-23T01:16:55;8.00;78.40
46926;DHT22;32667;48.248;-1.700;2024-03-23T01:19:21;8.10;78.20
46926;DHT22;32667;48.248;-1.700;2024-03-23T01:21:47;8.20;78.10
46926;DHT22;32667;48.248;-1.700;2024-03-23T01:24:14;8.20;78.00
46926;DHT22;32667;48.248;-1.700;2024-03-23T01:26:40;8.20;77.80
46926;DHT22;32667;48.248;-1.700;2024-03-23T01:29:05;8.20;77.80
46926;DHT22;32667;48.248;-1.700;2024-03-23T01:31:34;8.10;78.00
46926;DHT22;32667;48.248;-1.700;2024-03-23T01:33:59;8.00;78.20
46926;DHT22;32667;48.248;-1.700;2024-03-23T01:36:27;8.00;78.20
46926;DHT22;32667;48.248;-1.700;2024-03-23T01:38:53;7.90;78.30
46926;DHT22;32667;48.248;-1.700;2024-03-23T01:41:19;7.90;78.30
46926;DHT22;32667;48.248;-1.700;2024-03-23T01:43:48;7.80;78.40
46926;DHT22;32667;48.248;-1.700;2024-03-23T01:46:14;7.70;78.40
46926;DHT22;32667;48.248;-1.700;2024-03-23T01:48:42;7.70;79.10
46926;DHT22;32667;48.248;-1.700;2024-03-23T01:51:08;7.70;78.70
46926;DHT22;32667;48.248;-1.700;2024-03-23T01:53:42;7.60;78.70
46926;DHT22;32667;48.248;-1.700;2024-03-23T01:56:07;7.60;78.70
46926;DHT22;32667;48.248;-1.700;2024-03-23T01:58:35;7.60;78.90
46926;DHT22;32667;48.248;-1.700;2024-03-23T02:01:01;7.60;78.70
46926;DHT22;32667;48.248;-1.700;2024-03-23T02:03:28;7.50;78.60
46926;DHT22;32667;48.248;-1.700;2024-03-23T02:05:54;7.50;78.70
46926;DHT22;32667;48.248;-1.700;2024-03-23T02:08:22;7.40;78.70
46926;DHT22;32667;48.248;-1.700;2024-03-23T02:10:52;7.40;78.80
46926;DHT22;32667;48.248;-1.700;2024-03-23T02:13:19;7.30;78.80
46926;DHT22;32667;48.248;-1.700;2024-03-23T02:15:45;7.30;78.90
46926;DHT22;32667;48.248;-1.700;2024-03-23T02:18:13;7.30;79.00
46926;DHT22;32667;48.248;-1.700;2024-03-23T02:20:43;7.30;78.90
46926;DHT22;32667;48.248;-1.700;2024-03-23T02:23:15;7.40;78.80
46926;DHT22;32667;48.248;-1.700;2024-03-23T02:25:44;7.50;78.70
46926;DHT22;32667;48.248;-1.700;2024-03-23T02:28:10;7.50;79.10
46926;DHT22;32667;48.248;-1.700;2024-03-23T02:30:36;7.60;78.40
46926;DHT22;32667;48.248;-1.700;2024-03-23T02:33:03;7.70;78.30
46926;DHT22;32667;48.248;-1.700;2024-03-23T02:35:29;7.70;78.20
46926;DHT22;32667;48.248;-1.700;2024-03-23T02:37:55;7.70;78.00
46926;DHT22;32667;48.248;-1.700;2024-03-23T02:40:23;7.80;78.00
46926;DHT22;32667;48.248;-1.700;2024-03-23T02:42:51;7.80;78.00
46926;DHT22;32667;48.248;-1.700;2024-03-23T02:45:17;7.80;78.00
46926;DHT22;32667;48.248;-1.700;2024-03-23T02:47:43;7.80;78.00
46926;DHT22;32667;48.248;-1.700;2024-03-23T02:50:09;7.80;77.90
46926;DHT22;32667;48.248;-1.700;2024-03-23T02:52:35;7.90;77.90
46926;DHT22;32667;48.248;-1.700;2024-03-23T02:55:02;7.90;77.80
46926;DHT22;32667;48.248;-1.700;2024-03-23T02:57:28;7.90;77.90
46926;DHT22;32667;48.248;-1.700;2024-03-23T02:59:54;7.90;77.80
46926;DHT22;32667;48.248;-1.700;2024-03-23T03:02:20;7.90;78.00
46926;DHT22;32667;48.248;-1.700;2024-03-23T03:04:46;7.90;77.80
46926;DHT22;32667;48.248;-1.700;2024-03-23T03:07:13;7.80;77.70
46926;DHT22;32667;48.248;-1.700;2024-03-23T03:09:39;7.80;77.80
46926;DHT22;32667;48.248;-1.700;2024-03-23T03:12:08;7.80;77.90
46926;DHT22;32667;48.248;-1.700;2024-03-23T03:14:36;7.80;77.90
46926;DHT22;32667;48.248;-1.700;2024-03-23T03:17:05;7.70;77.90
46926;DHT22;32667;48.248;-1.700;2024-03-23T03:19:30;7.70;78.00
46926;DHT22;32667;48.248;-1.700;2024-03-23T03:21:56;7.70;78.10
46926;DHT22;32667;48.248;-1.700;2024-03-23T03:24:22;7.60;78.20
46926;DHT22;32667;48.248;-1.700;2024-03-23T03:26:48;7.60;78.20
46926;DHT22;32667;48.248;-1.700;2024-03-23T03:29:15;7.50;78.20
46926;DHT22;32667;48.248;-1.700;2024-03-23T03:31:41;7.50;78.30
46926;DHT22;32667;48.248;-1.700;2024-03-23T03:34:10;7.50;78.40
46926;DHT22;32667;48.248;-1.700;2024-03-23T03:36:36;7.40;78.40
46926;DHT22;32667;48.248;-1.700;2024-03-23T03:39:01;7.30;78.40
46926;DHT22;32667;48.248;-1.700;2024-03-23T03:41:32;7.30;78.50
46926;DHT22;32667;48.248;-1.700;2024-03-23T03:43:58;7.20;78.50
46926;DHT22;32667;48.248;-1.700;2024-03-23T03:46:28;7.20;78.60
46926;DHT22;32667;48.248;-1.700;2024-03-23T03:48:56;7.20;78.60
46926;DHT22;32667;48.248;-1.700;2024-03-23T03:51:22;7.10;78.70
46926;DHT22;32667;48.248;-1.700;2024-03-23T03:53:48;7.10;78.70
46926;DHT22;32667;48.248;-1.700;2024-03-23T03:56:14;7.10;78.70
46926;DHT22;32667;48.248;-1.700;2024-03-23T03:58:40;7.10;78.80
46926;DHT22;32667;48.248;-1.700;2024-03-23T04:01:06;7.00;78.70
46926;DHT22;32667;48.248;-1.700;2024-03-23T04:03:31;7.00;78.80
46926;DHT22;32667;48.248;-1.700;2024-03-23T04:05:57;6.90;78.80
46926;DHT22;32667;48.248;-1.700;2024-03-23T04:08:24;6.80;78.80
46926;DHT22;32667;48.248;-1.700;2024-03-23T04:10:52;6.80;78.90
46926;DHT22;32667;48.248;-1.700;2024-03-23T04:13:17;6.80;79.00
46926;DHT22;32667;48.248;-1.700;2024-03-23T04:15:43;6.70;79.10
46926;DHT22;32667;48.248;-1.700;2024-03-23T04:18:09;6.70;79.10
46926;DHT22;32667;48.248;-1.700;2024-03-23T04:20:34;6.70;79.10
46926;DHT22;32667;48.248;-1.700;2024-03-23T04:23:00;6.70;79.10
46926;DHT22;32667;48.248;-1.700;2024-03-23T04:25:27;6.60;79.00
46926;DHT22;32667;48.248;-1.700;2024-03-23T04:27:53;6.70;79.10
46926;DHT22;32667;48.248;-1.700;2024-03-23T04:30:18;6.60;79.10
46926;DHT22;32667;48.248;-1.700;2024-03-23T04:32:47;6.60;79.10
46926;DHT22;32667;48.248;-1.700;2024-03-23T04:35:15;6.50;79.10
46926;DHT22;32667;48.248;-1.700;2024-03-23T04:37:40;6.50;79.10
46926;DHT22;32667;48.248;-1.700;2024-03-23T04:40:07;6.50;79.20
46926;DHT22;32667;48.248;-1.700;2024-03-23T04:42:33;6.50;79.20
46926;DHT22;32667;48.248;-1.700;2024-03-23T04:44:59;6.50;79.20
46926;DHT22;32667;48.248;-1.700;2024-03-23T04:47:25;6.50;79.20
46926;DHT22;32667;48.248;-1.700;2024-03-23T04:49:51;6.50;79.00
46926;DHT22;32667;48.248;-1.700;2024-03-23T04:52:17;6.50;79.00
46926;DHT22;32667;48.248;-1.700;2024-03-23T04:54:43;6.50;78.90
46926;DHT22;32667;48.248;-1.700;2024-03-23T04:57:09;6.50;78.90
46926;DHT22;32667;48.248;-1.700;2024-03-23T04:59:35;6.50;78.90
46926;DHT22;32667;48.248;-1.700;2024-03-23T05:02:00;6.50;78.90
46926;DHT22;32667;48.248;-1.700;2024-03-23T05:04:27;6.50;78.90
46926;DHT22;32667;48.248;-1.700;2024-03-23T05:06:52;6.50;78.90
46926;DHT22;32667;48.248;-1.700;2024-03-23T05:09:22;6.50;78.90
46926;DHT22;32667;48.248;-1.700;2024-03-23T05:11:47;6.50;78.80
46926;DHT22;32667;48.248;-1.700;2024-03-23T05:14:13;6.50;78.80
46926;DHT22;32667;48.248;-1.700;2024-03-23T05:16:39;6.50;78.80
46926;DHT22;32667;48.248;-1.700;2024-03-23T05:19:07;6.50;78.70
46926;DHT22;32667;48.248;-1.700;2024-03-23T05:21:33;6.50;78.80
46926;DHT22;32667;48.248;-1.700;2024-03-23T05:23:59;6.50;78.70
46926;DHT22;32667;48.248;-1.700;2024-03-23T05:26:25;6.50;78.70
46926;DHT22;32667;48.248;-1.700;2024-03-23T05:28:50;6.50;78.70
46926;DHT22;32667;48.248;-1.700;2024-03-23T05:31:25;6.40;78.70
46926;DHT22;32667;48.248;-1.700;2024-03-23T05:33:51;6.40;78.80
46926;DHT22;32667;48.248;-1.700;2024-03-23T05:36:18;6.40;78.80
46926;DHT22;32667;48.248;-1.700;2024-03-23T05:38:46;6.30;78.80
46926;DHT22;32667;48.248;-1.700;2024-03-23T05:41:12;6.30;78.80
46926;DHT22;32667;48.248;-1.700;2024-03-23T05:43:40;6.30;78.80
46926;DHT22;32667;48.248;-1.700;2024-03-23T05:46:06;6.20;78.80
46926;DHT22;32667;48.248;-1.700;2024-03-23T05:48:36;6.20;78.90
46926;DHT22;32667;48.248;-1.700;2024-03-23T05:51:02;6.20;78.90
46926;DHT22;32667;48.248;-1.700;2024-03-23T05:53:28;6.10;78.90
46926;DHT22;32667;48.248;-1.700;2024-03-23T05:56:02;6.10;79.00
46926;DHT22;32667;48.248;-1.700;2024-03-23T05:58:32;6.10;79.00
46926;DHT22;32667;48.248;-1.700;2024-03-23T06:01:01;6.10;79.00
46926;DHT22;32667;48.248;-1.700;2024-03-23T06:03:28;6.00;79.00
46926;DHT22;32667;48.248;-1.700;2024-03-23T06:05:54;6.00;79.00
46926;DHT22;32667;48.248;-1.700;2024-03-23T06:08:21;6.00;79.00
46926;DHT22;32667;48.248;-1.700;2024-03-23T06:10:47;6.00;79.00
46926;DHT22;32667;48.248;-1.700;2024-03-23T06:13:13;5.90;79.00
46926;DHT22;32667;48.248;-1.700;2024-03-23T06:15:39;5.90;79.10
46926;DHT22;32667;48.248;-1.700;2024-03-23T06:18:05;5.90;79.10
46926;DHT22;32667;48.248;-1.700;2024-03-23T06:20:37;5.90;79.10
46926;DHT22;32667;48.248;-1.700;2024-03-23T06:23:03;5.90;79.10
46926;DHT22;32667;48.248;-1.700;2024-03-23T06:25:29;5.80;79.10
46926;DHT22;32667;48.248;-1.700;2024-03-23T06:27:55;5.80;79.10
46926;DHT22;32667;48.248;-1.700;2024-03-23T06:30:21;5.80;79.10
46926;DHT22;32667;48.248;-1.700;2024-03-23T06:32:51;5.80;79.10
46926;DHT22;32667;48.248;-1.700;2024-03-23T06:35:18;5.90;79.10
46926;DHT22;32667;48.248;-1.700;2024-03-23T06:37:44;5.80;79.00
46926;DHT22;32667;48.248;-1.700;2024-03-23T06:40:10;5.80;79.00
46926;DHT22;32667;48.248;-1.700;2024-03-23T06:42:36;5.90;79.00
46926;DHT22;32667;48.248;-1.700;2024-03-23T06:45:05;5.90;79.10
46926;DHT22;32667;48.248;-1.700;2024-03-23T06:47:31;5.90;79.00
46926;DHT22;32667;48.248;-1.700;2024-03-23T06:49:57;6.00;79.00
46926;DHT22;32667;48.248;-1.700;2024-03-23T06:52:23;6.00;78.90
46926;DHT22;32667;48.248;-1.700;2024-03-23T06:54:50;6.00;78.80
46926;DHT22;32667;48.248;-1.700;2024-03-23T06:57:16;6.00;78.70
46926;DHT22;32667;48.248;-1.700;2024-03-23T06:59:42;6.10;78.70
46926;DHT22;32667;48.248;-1.700;2024-03-23T07:02:08;6.10;78.70
46926;DHT22;32667;48.248;-1.700;2024-03-23T07:04:35;6.10;78.60
46926;DHT22;32667;48.248;-1.700;2024-03-23T07:07:01;6.10;78.60
46926;DHT22;32667;48.248;-1.700;2024-03-23T07:09:28;6.10;78.50
46926;DHT22;32667;48.248;-1.700;2024-03-23T07:11:56;6.20;78.50
46926;DHT22;32667;48.248;-1.700;2024-03-23T07:14:23;6.20;78.40
46926;DHT22;32667;48.248;-1.700;2024-03-23T07:16:51;6.20;78.50
46926;DHT22;32667;48.248;-1.700;2024-03-23T07:19:20;6.20;78.50
46926;DHT22;32667;48.248;-1.700;2024-03-23T07:21:50;6.20;78.60
46926;DHT22;32667;48.248;-1.700;2024-03-23T07:24:19;6.30;78.40
46926;DHT22;32667;48.248;-1.700;2024-03-23T07:26:44;6.30;78.40
46926;DHT22;32667;48.248;-1.700;2024-03-23T07:29:10;6.40;78.40
46926;DHT22;32667;48.248;-1.700;2024-03-23T07:31:36;6.40;78.20
46926;DHT22;32667;48.248;-1.700;2024-03-23T07:34:02;6.50;78.10
46926;DHT22;32667;48.248;-1.700;2024-03-23T07:36:28;6.60;78.10
46926;DHT22;32667;48.248;-1.700;2024-03-23T07:38:56;6.60;78.00
46926;DHT22;32667;48.248;-1.700;2024-03-23T07:41:21;6.70;77.90
46926;DHT22;32667;48.248;-1.700;2024-03-23T07:43:48;6.80;77.80
46926;DHT22;32667;48.248;-1.700;2024-03-23T07:46:15;6.80;77.70
46926;DHT22;32667;48.248;-1.700;2024-03-23T07:48:41;6.90;77.60
46926;DHT22;32667;48.248;-1.700;2024-03-23T07:51:09;7.00;77.50
46926;DHT22;32667;48.248;-1.700;2024-03-23T07:53:36;7.10;77.50
46926;DHT22;32667;48.248;-1.700;2024-03-23T07:56:09;7.10;77.30
46926;DHT22;32667;48.248;-1.700;2024-03-23T07:58:36;7.20;77.20
46926;DHT22;32667;48.248;-1.700;2024-03-23T08:01:06;7.30;77.10
46926;DHT22;32667;48.248;-1.700;2024-03-23T08:03:36;7.30;77.00
46926;DHT22;32667;48.248;-1.700;2024-03-23T08:08:36;7.50;77.00
46926;DHT22;32667;48.248;-1.700;2024-03-23T08:11:14;7.60;76.80
46926;DHT22;32667;48.248;-1.700;2024-03-23T08:13:44;7.80;76.70
46926;DHT22;32667;48.248;-1.700;2024-03-23T08:16:23;7.90;76.60
46926;DHT22;32667;48.248;-1.700;2024-03-23T08:18:52;7.90;76.50
46926;DHT22;32667;48.248;-1.700;2024-03-23T08:21:18;8.00;76.50
46926;DHT22;32667;48.248;-1.700;2024-03-23T08:23:44;8.10;76.50
46926;DHT22;32667;48.248;-1.700;2024-03-23T08:26:15;8.20;76.30
46926;DHT22;32667;48.248;-1.700;2024-03-23T08:28:43;8.30;76.20
46926;DHT22;32667;48.248;-1.700;2024-03-23T08:31:10;8.50;76.10
46926;DHT22;32667;48.248;-1.700;2024-03-23T08:33:37;8.50;76.00
46926;DHT22;32667;48.248;-1.700;2024-03-23T08:36:07;8.70;76.00
46926;DHT22;32667;48.248;-1.700;2024-03-23T08:38:33;8.80;75.80
46926;DHT22;32667;48.248;-1.700;2024-03-23T08:41:01;8.90;75.60
46926;DHT22;32667;48.248;-1.700;2024-03-23T08:43:32;9.00;75.50
46926;DHT22;32667;48.248;-1.700;2024-03-23T08:46:08;9.00;75.40
46926;DHT22;32667;48.248;-1.700;2024-03-23T08:48:35;9.10;75.60
46926;DHT22;32667;48.248;-1.700;2024-03-23T08:51:05;9.10;75.60
46926;DHT22;32667;48.248;-1.700;2024-03-23T08:53:32;9.20;75.70
46926;DHT22;32667;48.248;-1.700;2024-03-23T08:56:01;9.20;75.60
46926;DHT22;32667;48.248;-1.700;2024-03-23T08:58:29;9.20;75.60
46926;DHT22;32667;48.248;-1.700;2024-03-23T09:00:55;9.30;75.70
46926;DHT22;32667;48.248;-1.700;2024-03-23T09:03:23;9.40;75.70
46926;DHT22;32667;48.248;-1.700;2024-03-23T09:05:49;9.50;75.50
46926;DHT22;32667;48.248;-1.700;2024-03-23T09:08:15;9.50;75.40
46926;DHT22;32667;48.248;-1.700;2024-03-23T09:10:44;9.60;75.40
46926;DHT22;32667;48.248;-1.700;2024-03-23T09:13:10;9.70;75.30
46926;DHT22;32667;48.248;-1.700;2024-03-23T09:15:49;9.80;75.20
46926;DHT22;32667;48.248;-1.700;2024-03-23T09:18:16;9.80;75.30
46926;DHT22;32667;48.248;-1.700;2024-03-23T09:20:44;9.80;75.20
46926;DHT22;32667;48.248;-1.700;2024-03-23T09:23:13;9.90;75.20
46926;DHT22;32667;48.248;-1.700;2024-03-23T09:25:39;9.90;75.20
46926;DHT22;32667;48.248;-1.700;2024-03-23T09:28:15;10.00;75.90
46926;DHT22;32667;48.248;-1.700;2024-03-23T09:30:41;10.00;75.20
46926;DHT22;32667;48.248;-1.700;2024-03-23T09:33:10;10.00;75.20
46926;DHT22;32667;48.248;-1.700;2024-03-23T09:35:39;10.00;75.30
46926;DHT22;32667;48.248;-1.700;2024-03-23T09:38:08;10.10;75.20
46926;DHT22;32667;48.248;-1.700;2024-03-23T09:40:35;10.20;75.10
46926;DHT22;32667;48.248;-1.700;2024-03-23T09:43:06;10.20;75.00
46926;DHT22;32667;48.248;-1.700;2024-03-23T09:45:34;10.30;75.10
46926;DHT22;32667;48.248;-1.700;2024-03-23T09:48:01;10.40;74.90
46926;DHT22;32667;48.248;-1.700;2024-03-23T09:50:30;10.40;74.90
46926;DHT22;32667;48.248;-1.700;2024-03-23T09:52:55;10.40;75.00
46926;DHT22;32667;48.248;-1.700;2024-03-23T09:55:21;10.50;75.00
46926;DHT22;32667;48.248;-1.700;2024-03-23T09:57:47;10.60;75.00
46926;DHT22;32667;48.248;-1.700;2024-03-23T10:00:15;10.60;74.80
46926;DHT22;32667;48.248;-1.700;2024-03-23T10:02:42;10.70;74.70
46926;DHT22;32667;48.248;-1.700;2024-03-23T10:05:23;10.80;74.70
46926;DHT22;32667;48.248;-1.700;2024-03-23T10:07:54;10.80;74.60
46926;DHT22;32667;48.248;-1.700;2024-03-23T10:10:20;10.90;74.70
46926;DHT22;32667;48.248;-1.700;2024-03-23T10:12:49;11.00;74.60
46926;DHT22;32667;48.248;-1.700;2024-03-23T10:15:26;11.00;74.50
46926;DHT22;32667;48.248;-1.700;2024-03-23T10:17:52;11.00;74.50
46926;DHT22;32667;48.248;-1.700;2024-03-23T10:20:22;11.00;74.50
46926;DHT22;32667;48.248;-1.700;2024-03-23T10:22:51;11.10;74.50
46926;DHT22;32667;48.248;-1.700;2024-03-23T10:25:17;11.20;74.40
46926;DHT22;32667;48.248;-1.700;2024-03-23T10:27:43;11.30;74.30
46926;DHT22;32667;48.248;-1.700;2024-03-23T10:30:13;11.40;74.30
46926;DHT22;32667;48.248;-1.700;2024-03-23T10:32:42;11.50;74.30
46926;DHT22;32667;48.248;-1.700;2024-03-23T10:35:20;11.60;74.20
46926;DHT22;32667;48.248;-1.700;2024-03-23T10:37:51;11.60;74.00
46926;DHT22;32667;48.248;-1.700;2024-03-23T10:40:19;11.70;73.90
46926;DHT22;32667;48.248;-1.700;2024-03-23T10:42:45;11.80;74.00
46926;DHT22;32667;48.248;-1.700;2024-03-23T10:45:10;11.80;74.00
46926;DHT22;32667;48.248;-1.700;2024-03-23T10:47:39;11.80;74.00
46926;DHT22;32667;48.248;-1.700;2024-03-23T10:50:15;11.90;74.10
46926;DHT22;32667;48.248;-1.700;2024-03-23T10:52:47;12.00;74.00
46926;DHT22;32667;48.248;-1.700;2024-03-23T10:55:16;12.00;73.80
46926;DHT22;32667;48.248;-1.700;2024-03-23T10:57:54;12.10;73.80
46926;DHT22;32667;48.248;-1.700;2024-03-23T11:00:21;12.10;73.80
46926;DHT22;32667;48.248;-1.700;2024-03-23T11:02:48;12.10;73.70
46926;DHT22;32667;48.248;-1.700;2024-03-23T11:07:55;12.00;73.80
46926;DHT22;32667;48.248;-1.700;2024-03-23T11:10:31;11.90;74.10
46926;DHT22;32667;48.248;-1.700;2024-03-23T11:13:03;11.80;74.30
46926;DHT22;32667;48.248;-1.700;2024-03-23T11:15:44;11.70;74.50
46926;DHT22;32667;48.248;-1.700;2024-03-23T11:18:09;11.80;74.70
46926;DHT22;32667;48.248;-1.700;2024-03-23T11:20:38;11.80;75.20
46926;DHT22;32667;48.248;-1.700;2024-03-23T11:23:04;11.80;74.60
46926;DHT22;32667;48.248;-1.700;2024-03-23T11:25:30;11.90;74.60
46926;DHT22;32667;48.248;-1.700;2024-03-23T11:28:16;12.00;74.30
46926;DHT22;32667;48.248;-1.700;2024-03-23T11:30:44;12.00;74.10
46926;DHT22;32667;48.248;-1.700;2024-03-23T11:33:10;11.90;74.10
46926;DHT22;32667;48.248;-1.700;2024-03-23T11:35:39;11.70;74.40
46926;DHT22;32667;48.248;-1.700;2024-03-23T11:38:08;11.60;74.80
46926;DHT22;32667;48.248;-1.700;2024-03-23T11:40:36;11.40;75.10
46926;DHT22;32667;48.248;-1.700;2024-03-23T11:43:10;11.40;75.40
46926;DHT22;32667;48.248;-1.700;2024-03-23T11:45:42;11.40;75.50
46926;DHT22;32667;48.248;-1.700;2024-03-23T11:48:14;11.40;75.30
46926;DHT22;32667;48.248;-1.700;2024-03-23T11:50:44;11.40;75.40
46926;DHT22;32667;48.248;-1.700;2024-03-23T11:53:18;11.50;75.20
46926;DHT22;32667;48.248;-1.700;2024-03-23T11:58:20;11.70;75.00
46926;DHT22;32667;48.248;-1.700;2024-03-23T12:00:57;11.80;74.70
46926;DHT22;32667;48.248;-1.700;2024-03-23T12:03:30;11.90;74.40
46926;DHT22;32667;48.248;-1.700;2024-03-23T12:06:01;11.90;74.40
46926;DHT22;32667;48.248;-1.700;2024-03-23T12:08:31;12.00;74.30
46926;DHT22;32667;48.248;-1.700;2024-03-23T12:11:12;12.00;74.30
46926;DHT22;32667;48.248;-1.700;2024-03-23T12:13:39;11.90;74.30
46926;DHT22;32667;48.248;-1.700;2024-03-23T12:16:20;11.90;74.50
46926;DHT22;32667;48.248;-1.700;2024-03-23T12:18:47;11.90;74.50
46926;DHT22;32667;48.248;-1.700;2024-03-23T12:21:14;11.80;74.50
46926;DHT22;32667;48.248;-1.700;2024-03-23T12:23:41;11.60;74.60
46926;DHT22;32667;48.248;-1.700;2024-03-23T12:26:07;11.40;75.10
46926;DHT22;32667;48.248;-1.700;2024-03-23T12:28:35;11.20;75.50
46926;DHT22;32667;48.248;-1.700;2024-03-23T12:31:01;11.20;75.80
46926;DHT22;32667;48.248;-1.700;2024-03-23T12:33:29;11.10;75.90
46926;DHT22;32667;48.248;-1.700;2024-03-23T12:35:55;11.10;76.00
46926;DHT22;32667;48.248;-1.700;2024-03-23T12:38:21;11.20;76.00
46926;DHT22;32667;48.248;-1.700;2024-03-23T12:40:47;11.20;75.80
46926;DHT22;32667;48.248;-1.700;2024-03-23T12:43:14;11.40;75.70
46926;DHT22;32667;48.248;-1.700;2024-03-23T12:45:40;11.50;75.40
46926;DHT22;32667;48.248;-1.700;2024-03-23T12:48:06;11.70;75.10
46926;DHT22;32667;48.248;-1.700;2024-03-23T12:50:35;11.80;74.80
46926;DHT22;32667;48.248;-1.700;2024-03-23T12:53:00;12.00;74.60
46926;DHT22;32667;48.248;-1.700;2024-03-23T12:55:26;12.20;74.40
46926;DHT22;32667;48.248;-1.700;2024-03-23T12:57:52;12.30;74.10
46926;DHT22;32667;48.248;-1.700;2024-03-23T13:00:20;12.40;73.90
46926;DHT22;32667;48.248;-1.700;2024-03-23T13:02:46;12.50;73.80
46926;DHT22;32667;48.248;-1.700;2024-03-23T13:05:11;12.40;73.60
46926;DHT22;32667;48.248;-1.700;2024-03-23T13:07:37;12.40;73.90
46926;DHT22;32667;48.248;-1.700;2024-03-23T13:10:05;12.40;74.00
46926;DHT22;32667;48.248;-1.700;2024-03-23T13:12:32;12.40;73.90
46926;DHT22;32667;48.248;-1.700;2024-03-23T13:14:59;12.40;74.10
46926;DHT22;32667;48.248;-1.700;2024-03-23T13:17:25;12.30;74.20
46926;DHT22;32667;48.248;-1.700;2024-03-23T13:19:52;12.30;74.20
46926;DHT22;32667;48.248;-1.700;2024-03-23T13:22:18;12.20;74.30
46926;DHT22;32667;48.248;-1.700;2024-03-23T13:24:44;12.20;74.50
46926;DHT22;32667;48.248;-1.700;2024-03-23T13:27:10;12.10;74.60
46926;DHT22;32667;48.248;-1.700;2024-03-23T13:29:36;12.10;74.70
46926;DHT22;32667;48.248;-1.700;2024-03-23T13:32:03;12.00;74.80
46926;DHT22;32667;48.248;-1.700;2024-03-23T13:34:29;12.00;74.90
46926;DHT22;32667;48.248;-1.700;2024-03-23T13:36:55;12.00;74.90
46926;DHT22;32667;48.248;-1.700;2024-03-23T13:39:24;12.00;74.70
46926;DHT22;32667;48.248;-1.700;2024-03-23T13:41:49;12.10;74.80
46926;DHT22;32667;48.248;-1.700;2024-03-23T13:44:17;12.20;74.70
46926;DHT22;32667;48.248;-1.700;2024-03-23T13:46:43;12.50;74.50
46926;DHT22;32667;48.248;-1.700;2024-03-23T13:51:53;13.00;73.40
46926;DHT22;32667;48.248;-1.700;2024-03-23T13:54:21;13.30;73.20
46926;DHT22;32667;48.248;-1.700;2024-03-23T13:56:51;13.50;72.80
46926;DHT22;32667;48.248;-1.700;2024-03-23T13:59:17;13.70;72.60
46926;DHT22;32667;48.248;-1.700;2024-03-23T14:01:44;14.00;72.40
46926;DHT22;32667;48.248;-1.700;2024-03-23T14:04:11;13.90;72.00
46926;DHT22;32667;48.248;-1.700;2024-03-23T14:06:37;13.90;72.40
46926;DHT22;32667;48.248;-1.700;2024-03-23T14:09:03;13.80;72.60
46926;DHT22;32667;48.248;-1.700;2024-03-23T14:11:34;13.70;72.80
46926;DHT22;32667;48.248;-1.700;2024-03-23T14:14:00;13.60;73.10
46926;DHT22;32667;48.248;-1.700;2024-03-23T14:16:26;13.50;73.30
46926;DHT22;32667;48.248;-1.700;2024-03-23T14:18:52;13.40;73.50
46926;DHT22;32667;48.248;-1.700;2024-03-23T14:21:20;13.40;73.70
46926;DHT22;32667;48.248;-1.700;2024-03-23T14:23:46;13.50;73.70
46926;DHT22;32667;48.248;-1.700;2024-03-23T14:26:12;13.60;73.60
46926;DHT22;32667;48.248;-1.700;2024-03-23T14:28:37;13.60;73.30
46926;DHT22;32667;48.248;-1.700;2024-03-23T14:31:03;13.40;73.40
46926;DHT22;32667;48.248;-1.700;2024-03-23T14:33:36;13.30;73.80
46926;DHT22;32667;48.248;-1.700;2024-03-23T14:36:03;13.10;74.10
46926;DHT22;32667;48.248;-1.700;2024-03-23T14:38:29;13.00;74.30
46926;DHT22;32667;48.248;-1.700;2024-03-23T14:41:01;13.00;74.70
46926;DHT22;32667;48.248;-1.700;2024-03-23T14:43:31;13.00;74.50
46926;DHT22;32667;48.248;-1.700;2024-03-23T14:46:13;13.20;74.40
46926;DHT22;32667;48.248;-1.700;2024-03-23T14:48:41;13.40;74.10
46926;DHT22;32667;48.248;-1.700;2024-03-23T14:51:10;13.50;73.70
46926;DHT22;32667;48.248;-1.700;2024-03-23T14:53:40;13.60;73.60
46926;DHT22;32667;48.248;-1.700;2024-03-23T14:56:08;13.60;73.60
46926;DHT22;32667;48.248;-1.700;2024-03-23T14:58:40;13.70;73.60
46926;DHT22;32667;48.248;-1.700;2024-03-23T15:01:07;13.80;73.40
46926;DHT22;32667;48.248;-1.700;2024-03-23T15:03:42;13.90;73.30
46926;DHT22;32667;48.248;-1.700;2024-03-23T15:06:17;13.90;73.20
46926;DHT22;32667;48.248;-1.700;2024-03-23T15:08:42;13.90;73.20
46926;DHT22;32667;48.248;-1.700;2024-03-23T15:11:11;13.70;73.30
46926;DHT22;32667;48.248;-1.700;2024-03-23T15:13:37;13.50;73.70
46926;DHT22;32667;48.248;-1.700;2024-03-23T15:16:06;13.30;74.00
46926;DHT22;32667;48.248;-1.700;2024-03-23T15:18:35;13.20;74.40
46926;DHT22;32667;48.248;-1.700;2024-03-23T15:21:04;13.10;74.60
46926;DHT22;32667;48.248;-1.700;2024-03-23T15:23:33;13.00;74.60
46926;DHT22;32667;48.248;-1.700;2024-03-23T15:26:00;13.00;74.80
46926;DHT22;32667;48.248;-1.700;2024-03-23T15:28:29;12.90;74.80
46926;DHT22;32667;48.248;-1.700;2024-03-23T15:31:14;12.80;75.00
46926;DHT22;32667;48.248;-1.700;2024-03-23T15:33:39;12.70;75.00
46926;DHT22;32667;48.248;-1.700;2024-03-23T15:36:06;12.60;75.20
46926;DHT22;32667;48.248;-1.700;2024-03-23T15:38:32;12.50;75.30
46926;DHT22;32667;48.248;-1.700;2024-03-23T15:40:58;12.40;75.50
46926;DHT22;32667;48.248;-1.700;2024-03-23T15:43:24;12.40;75.50
46926;DHT22;32667;48.248;-1.700;2024-03-23T15:46:00;12.50;75.30
46926;DHT22;32667;48.248;-1.700;2024-03-23T15:48:26;12.50;75.20
46926;DHT22;32667;48.248;-1.700;2024-03-23T15:50:59;12.50;75.20
46926;DHT22;32667;48.248;-1.700;2024-03-23T15:53:26;12.50;75.00
46926;DHT22;32667;48.248;-1.700;2024-03-23T15:55:56;12.60;75.00
46926;DHT22;32667;48.248;-1.700;2024-03-23T15:58:23;12.60;74.90
46926;DHT22;32667;48.248;-1.700;2024-03-23T16:01:02;12.60;74.90
46926;DHT22;32667;48.248;-1.700;2024-03-23T16:03:28;12.70;74.80
46926;DHT22;32667;48.248;-1.700;2024-03-23T16:05:54;12.90;74.50
46926;DHT22;32667;48.248;-1.700;2024-03-23T16:08:23;13.00;74.20
46926;DHT22;32667;48.248;-1.700;2024-03-23T16:10:50;13.20;74.00
46926;DHT22;32667;48.248;-1.700;2024-03-23T16:13:16;13.30;73.70
46926;DHT22;32667;48.248;-1.700;2024-03-23T16:15:42;13.40;73.50
46926;DHT22;32667;48.248;-1.700;2024-03-23T16:18:07;13.30;73.50
46926;DHT22;32667;48.248;-1.700;2024-03-23T16:20:33;13.20;73.70
46926;DHT22;32667;48.248;-1.700;2024-03-23T16:23:00;13.00;74.00
46926;DHT22;32667;48.248;-1.700;2024-03-23T16:25:25;12.80;74.20
46926;DHT22;32667;48.248;-1.700;2024-03-23T16:27:51;12.60;74.60
46926;DHT22;32667;48.248;-1.700;2024-03-23T16:30:17;12.40;74.80